ベルリン/テーゲル の空港の天気 - METARとTAF

ベルリン・テーゲル国際空港 ( EDDT / TXL ) - ドイツ ベルリン
飛行場実況気象(Metar)
観測時間04/30 16:20 CEST (04/30 14:20 UTC)
風向・風速東 8m/s
視程10km以上
天気現象
なし
気温13℃
湿度35%
気圧1019hPa
METAREDDT 301420Z 09016KT 060V130 CAVOK 13/M02 Q1019 TEMPO 09015G25KT
過去の天気等 Google飛行場航空写真 Wunderground天気予報

過去48時間のMETAR

飛行場予報(TAF)
発表時間: 4/30 13:00 CEST (4/30 11:00 UTC)
予報対象時間: 30日14時 CEST ~ 1日14時 CEST
風向・風速東 6m/s
視程10km以上
なし
30日14時 CEST ~ 30日19時 CEST に 確率 30% で一時的に
風向・風速東 8m/s 瞬間風速 13m/s
1日10時 CEST ~ 1日12時 CEST に徐々に
風向・風速東 8m/s 瞬間風速 13m/s
TAF EDDT 301100Z 3012/0112 10012KT CAVOK
PROB30 TEMPO 3012/3017 10015G25KT
BECMG 0108/0110 10015G25KT